createdAt,value
2022-09-11T00:00:27.824Z,11.25
2022-09-11T00:03:16.505Z,11.98
2022-09-11T00:05:45.538Z,11.75
2022-09-11T00:08:17.181Z,11.82
2022-09-11T00:10:48.708Z,11.55
2022-09-11T00:13:22.176Z,12.63
2022-09-11T00:15:51.969Z,11.55
2022-09-11T00:18:23.635Z,10.48
2022-09-11T00:20:56.529Z,11.95
2022-09-11T00:23:29.168Z,11.20
2022-09-11T00:26:03.871Z,10.73
2022-09-11T00:28:32.567Z,12.43
2022-09-11T00:31:21.786Z,15.30
2022-09-11T00:33:51.864Z,12.32
2022-09-11T00:36:24.731Z,12.60
2022-09-11T00:38:53.328Z,11.68
2022-09-11T00:41:37.117Z,11.57
2022-09-11T00:44:17.967Z,11.32
2022-09-11T00:46:55.623Z,11.38
2022-09-11T00:49:47.816Z,11.85
2022-09-11T00:52:34.949Z,10.90
2022-09-11T00:55:16.381Z,11.70
2022-09-11T00:57:50.282Z,12.75
2022-09-11T01:00:21.145Z,13.07
2022-09-11T01:03:01.495Z,11.77
2022-09-11T01:05:34.704Z,12.07
2022-09-11T01:08:04.343Z,12.90
2022-09-11T01:10:47.666Z,12.10
2022-09-11T01:13:38.858Z,10.68
2022-09-11T01:16:26.730Z,11.80
2022-09-11T01:19:25.996Z,12.15
2022-09-11T01:22:29.281Z,11.80
2022-09-11T01:25:15.941Z,10.82
2022-09-11T01:27:56.816Z,12.38
2022-09-11T01:30:35.638Z,14.32
2022-09-11T01:33:06.280Z,15.40
2022-09-11T01:36:00.737Z,16.33
2022-09-11T01:38:50.390Z,15.20
2022-09-11T01:41:41.231Z,14.10
2022-09-11T01:44:14.555Z,16.35
2022-09-11T01:46:50.206Z,15.88
2022-09-11T01:49:35.431Z,16.20
2022-09-11T01:52:15.597Z,17.20
2022-09-11T01:54:51.325Z,17.98
2022-09-11T02:00:06.275Z,18.48
2022-09-11T02:03:03.744Z,16.98
2022-09-11T02:05:51.924Z,17.75
2022-09-11T02:08:37.064Z,17.77
2022-09-11T02:11:09.578Z,18.15
2022-09-11T02:14:02.396Z,17.65
2022-09-11T02:16:51.658Z,18.20
2022-09-11T02:19:28.069Z,18.83
2022-09-11T02:21:58.934Z,19.25
2022-09-11T02:24:28.396Z,19.10
2022-09-11T02:27:08.574Z,20.00
2022-09-11T02:29:45.152Z,19.83
2022-09-11T02:32:15.061Z,19.02
2022-09-11T02:34:48.594Z,19.50
2022-09-11T02:40:06.566Z,19.30
2022-09-11T02:43:09.509Z,19.40
2022-09-11T02:46:03.779Z,20.02
2022-09-11T02:48:58.042Z,16.75
2022-09-11T02:51:48.506Z,17.60
2022-09-11T02:54:36.349Z,18.00
2022-09-11T02:57:06.213Z,18.27
2022-09-11T03:00:01.460Z,16.55
2022-09-11T03:02:36.533Z,15.13
2022-09-11T03:05:06.370Z,14.43
2022-09-11T03:07:35.074Z,14.77
2022-09-11T03:10:03.889Z,14.10
2022-09-11T03:12:33.520Z,14.60
2022-09-11T03:15:02.974Z,14.45
2022-09-11T03:17:33.199Z,13.85
2022-09-11T03:20:03.748Z,13.80
2022-09-11T03:22:33.659Z,12.10
2022-09-11T03:25:02.253Z,13.13
2022-09-11T03:27:33.954Z,12.70
2022-09-11T03:30:02.750Z,12.07
2022-09-11T03:32:33.483Z,13.65
2022-09-11T03:35:02.559Z,12.65
2022-09-11T03:37:33.982Z,13.13
2022-09-11T03:40:04.954Z,12.52
2022-09-11T03:42:40.362Z,12.65
2022-09-11T03:45:09.677Z,13.30
2022-09-11T03:47:39.800Z,12.98
2022-09-11T03:50:15.360Z,14.05
2022-09-11T03:52:44.324Z,14.80
2022-09-11T03:55:13.696Z,14.57
2022-09-11T03:57:42.288Z,16.08
2022-09-11T04:00:13.330Z,15.70
2022-09-11T04:02:51.704Z,13.73
2022-09-11T04:05:33.547Z,14.48
2022-09-11T04:08:10.106Z,12.80
2022-09-11T04:10:39.248Z,14.52
2022-09-11T04:13:11.095Z,15.20
2022-09-11T04:15:40.865Z,14.85
2022-09-11T04:18:09.408Z,16.35
2022-09-11T04:20:42.552Z,15.30
2022-09-11T04:23:15.318Z,13.35
2022-09-11T04:25:45.829Z,13.40
2022-09-11T04:28:17.309Z,13.45
2022-09-11T04:30:46.086Z,13.13
2022-09-11T04:33:14.813Z,14.75
2022-09-11T04:35:44.386Z,14.57
2022-09-11T04:38:25.670Z,14.07
2022-09-11T04:40:56.152Z,12.40
2022-09-11T04:43:27.811Z,13.23
2022-09-11T04:46:02.046Z,12.55
2022-09-11T04:48:30.727Z,11.13
2022-09-11T04:51:05.963Z,10.95
2022-09-11T04:53:34.684Z,13.23
2022-09-11T04:56:23.689Z,12.63
2022-09-11T04:58:57.935Z,12.05
2022-09-11T05:04:03.653Z,12.82
2022-09-11T05:06:33.678Z,13.55
2022-09-11T05:09:11.060Z,14.20
2022-09-11T05:11:40.233Z,13.55
2022-09-11T05:14:13.548Z,14.48
2022-09-11T05:16:45.126Z,15.27
2022-09-11T05:19:15.787Z,13.95
2022-09-11T05:21:46.022Z,13.73
2022-09-11T05:24:16.263Z,13.93
2022-09-11T05:26:44.824Z,12.50
2022-09-11T05:29:15.679Z,15.77
2022-09-11T05:32:03.858Z,13.52
2022-09-11T05:34:32.237Z,29.70
2022-09-11T05:37:03.393Z,45.92
2022-09-11T05:39:37.713Z,70.88
2022-09-11T05:42:07.681Z,16.17
2022-09-11T05:44:40.851Z,13.50
2022-09-11T05:47:09.856Z,13.18
2022-09-11T05:49:39.531Z,12.65
2022-09-11T05:52:08.667Z,13.63
2022-09-11T05:54:37.089Z,12.95
2022-09-11T05:57:08.685Z,16.13
2022-09-11T05:59:40.680Z,14.43
2022-09-11T06:02:11.964Z,28.17
2022-09-11T06:04:46.195Z,59.50
2022-09-11T06:07:21.128Z,85.25
2022-09-11T06:09:57.783Z,62.47
2022-09-11T06:12:28.454Z,28.70
2022-09-11T06:14:59.190Z,39.00
2022-09-11T06:17:28.459Z,23.13
2022-09-11T06:19:57.966Z,25.13
2022-09-11T06:22:29.320Z,17.48
2022-09-11T06:24:58.395Z,53.78
2022-09-11T06:27:28.481Z,47.92
2022-09-11T06:29:57.907Z,24.23
2022-09-11T06:32:27.722Z,33.20
2022-09-11T06:34:56.425Z,15.32
2022-09-11T06:37:25.645Z,12.20
2022-09-11T06:39:55.369Z,12.18
2022-09-11T06:42:28.826Z,11.00
2022-09-11T06:45:02.571Z,10.85
2022-09-11T06:47:32.774Z,10.50
2022-09-11T06:50:02.423Z,10.20
2022-09-11T06:52:34.788Z,10.05
2022-09-11T06:55:32.504Z,8.48
2022-09-11T06:58:09.965Z,9.63
2022-09-11T07:00:42.634Z,8.77
2022-09-11T07:03:12.867Z,8.80
2022-09-11T07:05:52.290Z,8.52
2022-09-11T07:08:24.849Z,8.57
2022-09-11T07:10:55.082Z,9.52
2022-09-11T07:13:26.547Z,8.60
2022-09-11T07:16:08.463Z,11.25
2022-09-11T07:18:40.991Z,18.80
2022-09-11T07:21:21.467Z,8.60
2022-09-11T07:23:55.611Z,10.30
2022-09-11T07:26:29.206Z,10.80
2022-09-11T07:29:03.720Z,11.93
2022-09-11T07:31:35.535Z,14.40
2022-09-11T07:34:03.977Z,13.43
2022-09-11T07:36:35.779Z,10.80
2022-09-11T07:39:07.815Z,8.43
2022-09-11T07:41:40.378Z,61.85
2022-09-11T07:44:25.069Z,16.08
2022-09-11T07:46:54.323Z,11.40
2022-09-11T07:49:24.339Z,11.38
2022-09-11T07:52:03.482Z,22.00
2022-09-11T07:54:42.744Z,13.43
2022-09-11T07:57:17.905Z,14.75
2022-09-11T07:59:46.864Z,6.88
2022-09-11T08:02:18.317Z,8.63
2022-09-11T08:04:47.564Z,7.22
2022-09-11T08:07:23.288Z,6.15
2022-09-11T08:10:04.582Z,5.93
2022-09-11T08:12:42.175Z,6.20
2022-09-11T08:15:10.811Z,6.60
2022-09-11T08:17:46.993Z,5.53
2022-09-11T08:20:15.864Z,5.78
2022-09-11T08:22:44.121Z,5.25
2022-09-11T08:25:14.319Z,5.68
2022-09-11T08:27:43.313Z,7.70
2022-09-11T08:30:14.417Z,9.43
2022-09-11T08:32:45.431Z,7.20
2022-09-11T08:35:16.263Z,6.28
2022-09-11T08:37:45.116Z,9.18
2022-09-11T08:40:14.614Z,5.10
2022-09-11T08:42:53.086Z,4.30
2022-09-11T08:45:22.172Z,10.32
2022-09-11T08:47:57.675Z,9.73
2022-09-11T08:50:28.017Z,3.90
2022-09-11T08:53:04.155Z,12.85
2022-09-11T08:55:44.028Z,6.72
2022-09-11T08:58:32.077Z,11.73
2022-09-11T09:01:24.123Z,4.95
2022-09-11T09:04:11.602Z,4.90
2022-09-11T09:06:47.137Z,7.38
2022-09-11T09:09:35.085Z,4.45
2022-09-11T09:12:21.347Z,4.50
2022-09-11T09:14:59.015Z,4.38
2022-09-11T09:17:52.968Z,4.65
2022-09-11T09:20:32.968Z,4.00
2022-09-11T09:23:25.604Z,4.25
2022-09-11T09:25:58.267Z,3.78
2022-09-11T09:28:47.111Z,4.90
2022-09-11T09:31:22.553Z,8.13
2022-09-11T09:33:51.946Z,8.27
2022-09-11T09:36:24.239Z,3.17
2022-09-11T09:38:55.786Z,4.40
2022-09-11T09:41:51.617Z,4.20
2022-09-11T09:44:30.255Z,9.75
2022-09-11T09:47:03.037Z,5.72
2022-09-11T09:49:38.076Z,6.90
2022-09-11T09:52:26.417Z,6.75
2022-09-11T09:55:05.663Z,9.05
2022-09-11T09:57:37.494Z,9.63
2022-09-11T10:00:07.114Z,6.20
2022-09-11T10:02:56.563Z,10.73
2022-09-11T10:05:41.924Z,3.42
2022-09-11T10:08:35.736Z,6.47
2022-09-11T10:11:11.242Z,24.23
2022-09-11T10:13:54.539Z,5.93
2022-09-11T10:16:25.829Z,7.47
2022-09-11T10:18:59.316Z,13.02
2022-09-11T10:21:37.355Z,36.50
2022-09-11T10:24:26.338Z,3.88
2022-09-11T10:27:11.625Z,63.72
2022-09-11T10:30:06.511Z,3.55
2022-09-11T10:32:49.041Z,3.17
2022-09-11T10:35:51.785Z,1.88
2022-09-11T10:44:51.120Z,9.85
2022-09-11T10:47:41.465Z,11.85
2022-09-11T10:50:24.985Z,2.22
2022-09-11T10:53:08.236Z,3.97
2022-09-11T10:55:53.280Z,1.80
2022-09-11T10:58:29.131Z,2.25
2022-09-11T11:01:06.285Z,4.20
2022-09-11T11:03:42.001Z,3.03
2022-09-11T11:06:44.832Z,1.45
2022-09-11T11:09:30.838Z,3.42
2022-09-11T11:12:47.033Z,1.70
2022-09-11T11:15:29.570Z,1.70
2022-09-11T11:18:39.065Z,2.22
2022-09-11T11:21:51.911Z,2.60
2022-09-11T11:28:08.551Z,5.88
2022-09-11T11:31:03.744Z,3.20
2022-09-11T11:34:17.638Z,2.83
2022-09-11T11:36:54.990Z,2.90
2022-09-11T11:39:53.756Z,2.65
2022-09-11T11:42:33.073Z,5.97
2022-09-11T11:45:18.442Z,3.15
2022-09-11T11:47:51.108Z,4.10
2022-09-11T11:50:42.362Z,1.55
2022-09-11T11:53:50.969Z,1.52
2022-09-11T11:56:19.491Z,1.48
2022-09-11T11:58:57.500Z,2.17
2022-09-11T12:01:38.429Z,2.85
2022-09-11T12:04:40.593Z,2.10
2022-09-11T12:07:33.445Z,2.75
2022-09-11T12:10:12.423Z,2.03
2022-09-11T12:12:58.547Z,2.83
2022-09-11T12:15:32.422Z,1.80
2022-09-11T12:18:15.801Z,2.78
2022-09-11T12:20:46.027Z,2.85
2022-09-11T12:23:54.959Z,1.80
2022-09-11T12:26:24.886Z,1.60
2022-09-11T12:29:11.897Z,1.60
2022-09-11T12:32:13.693Z,1.90
2022-09-11T12:34:48.873Z,1.90
2022-09-11T12:37:33.389Z,1.42
2022-09-11T12:40:27.970Z,1.57
2022-09-11T12:42:59.891Z,1.60
2022-09-11T12:45:38.616Z,1.80
2022-09-11T12:48:13.413Z,2.20
2022-09-11T12:50:51.257Z,1.88
2022-09-11T12:53:34.337Z,1.50
2022-09-11T12:56:19.250Z,1.35
2022-09-11T12:59:19.872Z,1.20
2022-09-11T13:01:48.993Z,1.60
2022-09-11T13:04:22.138Z,2.00
2022-09-11T13:07:02.527Z,1.60
2022-09-11T13:09:32.151Z,1.67
2022-09-11T13:12:19.236Z,1.60
2022-09-11T13:14:53.342Z,1.42
2022-09-11T13:17:26.008Z,1.30
2022-09-11T13:20:09.601Z,1.95
2022-09-11T13:22:40.003Z,2.17
2022-09-11T13:25:23.996Z,2.03
2022-09-11T13:27:57.375Z,1.80
2022-09-11T13:30:27.142Z,1.60
2022-09-11T13:33:14.668Z,2.13
2022-09-11T13:35:46.186Z,2.35
2022-09-11T13:38:24.115Z,2.33
2022-09-11T13:41:07.424Z,1.70
2022-09-11T13:43:37.445Z,1.73
2022-09-11T13:46:34.852Z,2.20
2022-09-11T13:49:11.083Z,1.70
2022-09-11T13:51:47.697Z,1.50
2022-09-11T13:54:16.831Z,3.05
2022-09-11T13:56:57.327Z,2.38
2022-09-11T13:59:26.156Z,1.90
2022-09-11T14:02:02.261Z,2.63
2022-09-11T14:05:01.799Z,2.30
2022-09-11T14:07:36.225Z,3.25
2022-09-11T14:10:59.069Z,1.63
2022-09-11T14:13:51.681Z,1.63
2022-09-11T14:16:26.102Z,2.95
2022-09-11T14:19:00.411Z,18.65
2022-09-11T14:21:37.664Z,9.48
2022-09-11T14:24:51.111Z,3.08
2022-09-11T14:27:35.906Z,2.47
2022-09-11T14:30:54.638Z,1.90
2022-09-11T14:33:25.313Z,2.80
2022-09-11T14:36:07.972Z,1.50
2022-09-11T14:38:38.330Z,2.10
2022-09-11T14:41:07.549Z,3.38
2022-09-11T14:43:40.544Z,32.25
2022-09-11T14:46:10.328Z,2.50
2022-09-11T14:51:41.450Z,2.20
2022-09-11T14:54:18.779Z,6.97
2022-09-11T14:56:49.198Z,3.63
2022-09-11T14:59:18.129Z,2.70
2022-09-11T15:01:48.296Z,1.80
2022-09-11T15:04:20.830Z,3.90
2022-09-11T15:06:56.056Z,2.83
2022-09-11T15:09:27.038Z,6.93
2022-09-11T15:11:57.599Z,4.50
2022-09-11T15:15:02.875Z,2.67
2022-09-11T15:17:34.832Z,3.80
2022-09-11T15:20:40.444Z,7.35
2022-09-11T15:23:09.340Z,8.88
2022-09-11T15:25:43.788Z,13.32
2022-09-11T15:28:13.751Z,12.82
2022-09-11T15:30:43.729Z,7.95
2022-09-11T15:33:12.921Z,8.02
2022-09-11T15:35:41.928Z,1.65
2022-09-11T15:38:13.699Z,4.28
2022-09-11T15:40:44.098Z,2.20
2022-09-11T15:43:15.151Z,2.63
2022-09-11T15:45:44.043Z,17.05
2022-09-11T15:48:15.166Z,2.55
2022-09-11T15:50:48.892Z,4.70
2022-09-11T15:53:30.637Z,3.72
2022-09-11T15:56:07.301Z,12.00
2022-09-11T15:58:41.156Z,3.97
2022-09-11T16:01:24.416Z,7.78
2022-09-11T16:04:18.899Z,7.78
2022-09-11T16:06:48.935Z,7.80
2022-09-11T16:09:26.642Z,6.05
2022-09-11T16:11:56.902Z,8.02
2022-09-11T16:14:36.331Z,6.72
2022-09-11T16:17:32.974Z,3.50
2022-09-11T16:22:36.587Z,6.53
2022-09-11T16:25:06.330Z,8.88
2022-09-11T16:27:36.893Z,2.50
2022-09-11T16:30:42.036Z,3.20
2022-09-11T16:32:55.557Z,3.83
2022-09-11T16:35:27.248Z,5.32
2022-09-11T16:37:59.919Z,8.90
2022-09-11T16:46:24.641Z,22.60
2022-09-11T16:51:53.111Z,11.55
2022-09-11T16:54:22.512Z,12.63
2022-09-11T16:56:52.964Z,8.48
2022-09-11T16:59:24.980Z,7.97
2022-09-11T17:01:59.434Z,14.35
2022-09-11T17:04:30.112Z,9.18
2022-09-11T17:07:04.739Z,9.95
2022-09-11T17:09:33.940Z,5.10
2022-09-11T17:12:05.639Z,4.25
2022-09-11T17:14:35.915Z,9.25
2022-09-11T17:17:10.698Z,5.30
2022-09-11T17:19:43.386Z,14.70
2022-09-11T17:23:02.230Z,7.90
2022-09-11T17:25:35.877Z,11.73
2022-09-11T17:28:06.179Z,9.25
2022-09-11T17:31:08.975Z,5.57
2022-09-11T17:33:50.524Z,5.30
2022-09-11T17:38:59.650Z,6.43
2022-09-11T17:41:32.617Z,8.97
2022-09-11T17:44:03.084Z,6.72
2022-09-11T17:46:31.993Z,9.02
2022-09-11T17:49:04.253Z,26.90
2022-09-11T17:51:35.170Z,13.40
2022-09-11T17:54:05.438Z,9.75
2022-09-11T17:56:37.049Z,10.73
2022-09-11T17:59:09.550Z,9.63
2022-09-11T18:01:40.383Z,21.17
2022-09-11T18:04:14.050Z,12.05
2022-09-11T18:06:44.319Z,15.27
2022-09-11T18:09:20.121Z,10.25
2022-09-11T18:11:50.651Z,6.43
2022-09-11T18:14:19.734Z,9.63
2022-09-11T18:16:48.780Z,5.47
2022-09-11T18:19:26.063Z,11.95
2022-09-11T18:21:55.322Z,22.02
2022-09-11T18:24:30.151Z,13.55
2022-09-11T18:27:00.852Z,10.95
2022-09-11T18:29:30.485Z,9.43
2022-09-11T18:32:11.288Z,11.77
2022-09-11T18:34:40.880Z,9.90
2022-09-11T18:37:17.083Z,13.00
2022-09-11T18:40:00.034Z,11.68
2022-09-11T18:45:14.419Z,20.52
2022-09-11T18:47:44.685Z,11.82
2022-09-11T18:50:26.453Z,8.98
2022-09-11T18:52:56.606Z,10.35
2022-09-11T18:55:25.880Z,21.10
2022-09-11T18:57:54.817Z,5.47
2022-09-11T19:03:13.242Z,6.57
2022-09-11T19:05:42.652Z,6.15
2022-09-11T19:08:10.939Z,6.97
2022-09-11T19:10:47.147Z,7.80
2022-09-11T19:13:26.616Z,7.32
2022-09-11T19:16:00.314Z,8.10
2022-09-11T19:18:29.398Z,6.53
2022-09-11T19:21:12.654Z,11.30
2022-09-11T19:23:47.381Z,7.65
2022-09-11T19:26:21.316Z,14.60
2022-09-11T19:28:51.317Z,15.27
2022-09-11T19:31:26.517Z,9.55
2022-09-11T19:33:57.091Z,11.47
2022-09-11T19:36:27.390Z,19.52
2022-09-11T19:39:00.530Z,13.30
2022-09-11T19:41:35.665Z,7.88
2022-09-11T19:47:08.994Z,11.68
2022-09-11T19:49:37.452Z,9.20
2022-09-11T19:52:08.882Z,10.40
2022-09-11T19:54:38.218Z,9.00
2022-09-11T19:57:08.452Z,9.15
2022-09-11T19:59:38.332Z,7.32
2022-09-11T20:02:07.327Z,6.53
2022-09-11T20:04:36.233Z,7.50
2022-09-11T20:07:05.733Z,7.70
2022-09-11T20:09:34.887Z,5.88
2022-09-11T20:12:04.959Z,4.07
2022-09-11T20:14:38.363Z,4.60
2022-09-11T20:17:14.327Z,4.30
2022-09-11T20:19:44.859Z,4.90
2022-09-11T20:22:13.268Z,4.47
2022-09-11T20:24:42.303Z,4.38
2022-09-11T20:27:10.814Z,4.13
2022-09-11T20:29:45.392Z,6.50
2022-09-11T20:32:17.008Z,6.03
2022-09-11T20:34:45.587Z,3.80
2022-09-11T20:37:13.999Z,3.90
2022-09-11T20:39:43.732Z,3.80
2022-09-11T20:42:15.630Z,3.00
2022-09-11T20:44:48.485Z,7.15
2022-09-11T20:47:20.649Z,6.55
2022-09-11T20:49:51.446Z,7.07
2022-09-11T20:52:22.728Z,4.15
2022-09-11T20:54:54.574Z,3.22
2022-09-11T20:57:31.986Z,2.88
2022-09-11T21:00:00.919Z,2.67
2022-09-11T21:02:32.501Z,4.63
2022-09-11T21:05:05.291Z,3.10
2022-09-11T21:07:33.922Z,3.17
2022-09-11T21:10:02.832Z,3.53
2022-09-11T21:12:31.077Z,5.47
2022-09-11T21:15:00.124Z,3.42
2022-09-11T21:17:29.182Z,2.80
2022-09-11T21:20:00.147Z,3.10
2022-09-11T21:22:29.290Z,3.72
2022-09-11T21:24:57.632Z,2.67
2022-09-11T21:27:27.257Z,2.55
2022-09-11T21:29:56.035Z,2.60
2022-09-11T21:32:24.401Z,3.00
2022-09-11T21:34:53.508Z,4.03
2022-09-11T21:37:22.517Z,4.72
2022-09-11T21:39:51.667Z,5.22
2022-09-11T21:42:21.244Z,4.00
2022-09-11T21:44:49.843Z,3.60
2022-09-11T21:47:18.869Z,2.90
2022-09-11T21:49:49.178Z,3.30
2022-09-11T21:52:17.923Z,2.97
2022-09-11T21:54:46.507Z,2.90
2022-09-11T21:57:30.990Z,3.30
2022-09-11T22:00:00.763Z,4.38
2022-09-11T22:02:29.276Z,4.03
2022-09-11T22:05:00.059Z,4.63
2022-09-11T22:07:29.190Z,3.50
2022-09-11T22:09:58.471Z,3.67
2022-09-11T22:12:29.995Z,3.90
2022-09-11T22:15:01.698Z,4.68
2022-09-11T22:17:30.687Z,3.40
2022-09-11T22:20:00.736Z,3.22
2022-09-11T22:22:29.893Z,3.58
2022-09-11T22:24:58.124Z,3.35
2022-09-11T22:27:27.492Z,3.33
2022-09-11T22:29:56.289Z,3.42
2022-09-11T22:32:25.048Z,3.72
2022-09-11T22:34:54.183Z,3.50
2022-09-11T22:37:23.262Z,3.20
2022-09-11T22:39:51.568Z,3.40
2022-09-11T22:42:22.261Z,3.35
2022-09-11T22:44:51.949Z,3.17
2022-09-11T22:47:21.112Z,3.58
2022-09-11T22:49:49.695Z,3.58
2022-09-11T22:52:18.437Z,3.28
2022-09-11T22:54:47.944Z,3.50
2022-09-11T22:57:16.571Z,3.22
2022-09-11T22:59:47.442Z,2.92
2022-09-11T23:02:16.234Z,3.33
2022-09-11T23:05:05.137Z,3.00
2022-09-11T23:07:34.132Z,3.08
2022-09-11T23:10:03.187Z,3.22
2022-09-11T23:12:31.725Z,4.95
2022-09-11T23:15:03.361Z,4.20
2022-09-11T23:17:33.507Z,4.10
2022-09-11T23:20:02.081Z,3.30
2022-09-11T23:22:33.568Z,3.80
2022-09-11T23:25:05.794Z,3.72
2022-09-11T23:27:34.437Z,3.53
2022-09-11T23:30:03.297Z,3.80
2022-09-11T23:32:32.423Z,3.58
2022-09-11T23:35:03.613Z,3.30
2022-09-11T23:37:32.594Z,3.85
2022-09-11T23:40:01.829Z,3.95
2022-09-11T23:42:33.921Z,3.33
2022-09-11T23:45:03.775Z,3.90
2022-09-11T23:47:32.201Z,4.30
2022-09-11T23:50:02.224Z,4.60
2022-09-11T23:52:30.852Z,4.00
2022-09-11T23:54:59.105Z,4.50
2022-09-11T23:57:27.540Z,4.50
2022-09-11T23:59:56.172Z,5.78
